createdAt,value
2023-05-15T00:00:17.375Z,13.22
2023-05-15T00:02:44.875Z,9.81
2023-05-15T00:05:12.910Z,7.12
2023-05-15T00:07:40.861Z,6.63
2023-05-15T00:10:08.722Z,5.08
2023-05-15T00:12:35.296Z,4.42
2023-05-15T00:15:01.850Z,5.43
2023-05-15T00:17:28.471Z,5.24
2023-05-15T00:19:57.647Z,4.66
2023-05-15T00:22:24.262Z,4.60
2023-05-15T00:24:50.706Z,4.61
2023-05-15T00:27:17.162Z,4.78
2023-05-15T00:29:43.707Z,4.40
2023-05-15T00:32:10.155Z,4.32
2023-05-15T00:34:36.752Z,4.63
2023-05-15T00:37:03.470Z,4.37
2023-05-15T00:39:31.293Z,4.05
2023-05-15T00:42:01.958Z,4.29
2023-05-15T00:44:32.303Z,4.12
2023-05-15T00:47:03.399Z,3.93
2023-05-15T00:49:30.976Z,4.04
2023-05-15T00:51:58.120Z,4.30
2023-05-15T00:54:25.027Z,4.49
2023-05-15T00:56:53.088Z,4.23
2023-05-15T00:59:26.117Z,3.98
2023-05-15T01:01:52.776Z,3.86
2023-05-15T01:04:19.434Z,4.16
2023-05-15T01:06:46.197Z,4.30
2023-05-15T01:09:15.583Z,4.54
2023-05-15T01:11:43.433Z,4.49
2023-05-15T01:14:10.077Z,4.02
2023-05-15T01:16:36.781Z,4.05
2023-05-15T01:19:04.727Z,4.35
2023-05-15T01:22:01.164Z,4.04
2023-05-15T01:25:27.554Z,3.97
2023-05-15T01:28:05.960Z,3.66
2023-05-15T01:30:42.752Z,3.70
2023-05-15T01:33:35.019Z,3.89
2023-05-15T01:36:15.877Z,4.08
2023-05-15T01:38:56.780Z,3.83
2023-05-15T01:41:41.488Z,3.73
2023-05-15T01:44:22.429Z,3.71
2023-05-15T01:46:54.813Z,3.74
2023-05-15T01:49:28.015Z,3.70
2023-05-15T01:52:06.759Z,3.67
2023-05-15T01:54:36.137Z,5.18
2023-05-15T01:57:05.622Z,5.62
2023-05-15T01:59:35.380Z,4.69
2023-05-15T02:02:04.940Z,5.00
2023-05-15T02:04:34.471Z,4.50
2023-05-15T02:07:04.077Z,4.74
2023-05-15T02:09:33.393Z,4.19
2023-05-15T02:12:02.736Z,4.48
2023-05-15T02:14:31.320Z,4.00
2023-05-15T02:16:58.226Z,4.00
2023-05-15T02:19:24.965Z,5.09
2023-05-15T02:21:51.487Z,4.51
2023-05-15T02:24:17.936Z,4.51
2023-05-15T02:27:05.457Z,4.49
2023-05-15T02:29:47.780Z,4.72
2023-05-15T02:32:54.294Z,4.37
2023-05-15T02:35:52.249Z,4.25
2023-05-15T02:38:30.225Z,4.12
2023-05-15T02:40:59.130Z,4.43
2023-05-15T02:43:27.063Z,4.22
2023-05-15T02:45:56.934Z,5.13
2023-05-15T02:48:25.176Z,5.18
2023-05-15T02:50:52.370Z,4.69
2023-05-15T02:53:18.878Z,4.78
2023-05-15T02:55:45.399Z,5.05
2023-05-15T02:58:12.488Z,5.94
2023-05-15T03:00:38.976Z,7.16
2023-05-15T03:03:05.470Z,6.22
2023-05-15T03:05:32.035Z,6.74
2023-05-15T03:07:59.048Z,7.78
2023-05-15T03:10:25.634Z,7.90
2023-05-15T03:12:52.195Z,8.87
2023-05-15T03:15:19.254Z,6.63
2023-05-15T03:17:46.161Z,6.30
2023-05-15T03:20:14.050Z,7.19
2023-05-15T03:22:41.437Z,7.19
2023-05-15T03:25:11.904Z,8.43
2023-05-15T03:27:39.099Z,8.12
2023-05-15T03:30:07.562Z,8.72
2023-05-15T03:32:34.315Z,8.76
2023-05-15T03:35:01.158Z,8.95
2023-05-15T03:37:27.754Z,11.64
2023-05-15T03:39:54.387Z,16.03
2023-05-15T03:42:23.441Z,10.45
2023-05-15T03:44:51.263Z,8.58
2023-05-15T03:47:18.397Z,9.23
2023-05-15T03:49:46.775Z,7.07
2023-05-15T03:52:13.489Z,8.99
2023-05-15T03:54:40.402Z,12.28
2023-05-15T03:57:07.661Z,10.46
2023-05-15T03:59:34.142Z,9.15
2023-05-15T04:02:04.382Z,10.49
2023-05-15T04:04:31.694Z,10.54
2023-05-15T04:06:58.277Z,11.88
2023-05-15T04:09:24.805Z,11.30
2023-05-15T04:11:51.399Z,10.18
2023-05-15T04:14:17.924Z,10.83
2023-05-15T04:16:44.666Z,9.01
2023-05-15T04:19:11.241Z,6.88
2023-05-15T04:21:37.789Z,6.93
2023-05-15T04:24:04.635Z,8.58
2023-05-15T04:26:31.525Z,10.18
2023-05-15T04:29:03.855Z,8.21
2023-05-15T04:31:31.782Z,7.96
2023-05-15T04:33:58.405Z,8.44
2023-05-15T04:36:25.126Z,7.91
2023-05-15T04:38:51.791Z,6.02
2023-05-15T04:41:18.553Z,7.05
2023-05-15T04:43:45.145Z,6.53
2023-05-15T04:46:11.734Z,5.77
2023-05-15T04:48:38.347Z,5.15
2023-05-15T04:51:04.989Z,4.27
2023-05-15T04:53:31.490Z,3.98
2023-05-15T04:55:58.003Z,4.56
2023-05-15T04:58:24.604Z,4.62
2023-05-15T05:00:51.187Z,5.07
2023-05-15T05:03:17.771Z,5.20
2023-05-15T05:05:44.510Z,5.73
2023-05-15T05:08:11.001Z,6.61
2023-05-15T05:10:37.428Z,6.44
2023-05-15T05:13:04.269Z,6.07
2023-05-15T05:15:30.719Z,7.02
2023-05-15T05:17:57.159Z,7.78
2023-05-15T05:20:23.852Z,7.43
2023-05-15T05:22:50.331Z,5.77
2023-05-15T05:25:17.044Z,6.35
2023-05-15T05:27:43.741Z,6.62
2023-05-15T05:30:10.971Z,6.49
2023-05-15T05:32:38.151Z,6.44
2023-05-15T05:35:05.733Z,6.20
2023-05-15T05:37:32.258Z,6.52
2023-05-15T05:39:58.860Z,8.03
2023-05-15T05:42:25.362Z,8.74
2023-05-15T05:44:51.759Z,11.46
2023-05-15T05:47:18.234Z,9.82
2023-05-15T05:49:47.898Z,14.12
2023-05-15T05:52:15.739Z,14.54
2023-05-15T05:54:42.827Z,18.90
2023-05-15T05:57:09.734Z,18.29
2023-05-15T05:59:37.278Z,26.46
2023-05-15T06:02:04.858Z,25.22
2023-05-15T06:04:34.134Z,25.38
2023-05-15T06:07:01.239Z,25.75
2023-05-15T06:09:27.866Z,27.46
2023-05-15T06:11:54.305Z,29.30
2023-05-15T06:14:21.280Z,31.44
2023-05-15T06:16:47.960Z,32.38
2023-05-15T06:19:14.661Z,33.23
2023-05-15T06:21:41.347Z,33.42
2023-05-15T06:24:07.926Z,32.96
2023-05-15T06:26:34.586Z,32.56
2023-05-15T06:29:01.061Z,32.77
2023-05-15T06:31:27.633Z,32.54
2023-05-15T06:33:54.156Z,32.42
2023-05-15T06:36:20.798Z,33.93
2023-05-15T06:38:47.263Z,31.81
2023-05-15T06:41:13.758Z,32.10
2023-05-15T06:43:40.240Z,32.80
2023-05-15T06:46:06.808Z,32.58
2023-05-15T06:48:33.462Z,31.78
2023-05-15T06:51:00.063Z,31.51
2023-05-15T06:53:26.547Z,32.17
2023-05-15T06:55:52.992Z,31.12
2023-05-15T06:58:19.525Z,31.09
2023-05-15T07:00:46.267Z,32.30
2023-05-15T07:03:14.559Z,32.32
2023-05-15T07:05:41.494Z,32.76
2023-05-15T07:08:08.144Z,32.91
2023-05-15T07:10:34.702Z,33.07
2023-05-15T07:13:01.157Z,32.38
2023-05-15T07:15:27.638Z,31.62
2023-05-15T07:17:55.491Z,31.32
2023-05-15T07:20:22.230Z,32.25
2023-05-15T07:22:56.380Z,31.14
2023-05-15T07:25:25.068Z,32.64
2023-05-15T07:27:52.001Z,31.23
2023-05-15T07:30:19.086Z,31.57
2023-05-15T07:32:45.587Z,31.52
2023-05-15T07:35:12.296Z,31.28
2023-05-15T07:37:39.735Z,32.23
2023-05-15T07:40:07.707Z,32.18
2023-05-15T07:42:34.233Z,31.36
2023-05-15T07:45:00.789Z,31.65
2023-05-15T07:47:27.328Z,31.83
2023-05-15T07:49:53.840Z,32.54
2023-05-15T07:52:20.288Z,32.77
2023-05-15T07:54:46.786Z,33.80
2023-05-15T07:57:14.031Z,33.45
2023-05-15T07:59:40.497Z,33.33
2023-05-15T08:02:07.415Z,33.90
2023-05-15T08:04:34.060Z,33.60
2023-05-15T08:07:00.833Z,33.42
2023-05-15T08:09:27.330Z,32.63
2023-05-15T08:11:56.434Z,33.30
2023-05-15T08:14:23.073Z,33.26
2023-05-15T08:16:51.407Z,34.44
2023-05-15T08:19:19.228Z,34.30
2023-05-15T08:21:45.833Z,34.31
2023-05-15T08:24:12.320Z,34.94
2023-05-15T08:26:38.930Z,34.65
2023-05-15T08:29:05.496Z,34.46
2023-05-15T08:31:32.059Z,35.05
2023-05-15T08:33:58.534Z,33.31
2023-05-15T08:36:25.316Z,34.04
2023-05-15T08:38:51.846Z,33.14
2023-05-15T08:41:40.382Z,32.42
2023-05-15T08:44:10.815Z,32.83
2023-05-15T08:46:38.395Z,31.88
2023-05-15T08:49:24.075Z,32.61
2023-05-15T08:51:50.952Z,33.68
2023-05-15T08:54:18.483Z,32.57
2023-05-15T08:56:45.422Z,32.00
2023-05-15T08:59:11.971Z,30.37
2023-05-15T09:01:38.898Z,30.45
2023-05-15T09:04:05.541Z,30.01
2023-05-15T09:06:34.584Z,30.11
2023-05-15T09:09:03.552Z,29.37
2023-05-15T09:11:31.745Z,27.76
2023-05-15T09:13:59.633Z,26.45
2023-05-15T09:16:26.326Z,28.10
2023-05-15T09:18:54.004Z,28.38
2023-05-15T09:21:22.796Z,28.21
2023-05-15T09:23:49.317Z,28.93
2023-05-15T09:26:15.732Z,29.18
2023-05-15T09:28:43.345Z,29.84
2023-05-15T09:31:11.169Z,29.39
2023-05-15T09:33:42.393Z,28.38
2023-05-15T09:36:09.888Z,27.47
2023-05-15T09:38:43.533Z,26.62
2023-05-15T09:41:10.236Z,27.35
2023-05-15T09:43:39.801Z,29.03
2023-05-15T09:46:12.149Z,29.66
2023-05-15T09:48:39.261Z,28.51
2023-05-15T09:51:16.695Z,29.97
2023-05-15T09:53:49.791Z,29.81
2023-05-15T09:56:17.776Z,32.34
2023-05-15T09:58:54.454Z,32.28
2023-05-15T10:01:23.257Z,33.48
2023-05-15T10:04:00.952Z,35.05
2023-05-15T10:06:35.345Z,33.94
2023-05-15T10:09:03.913Z,33.64
2023-05-15T10:11:34.739Z,34.12
2023-05-15T10:14:06.659Z,33.53
2023-05-15T10:16:36.240Z,33.90
2023-05-15T10:19:06.365Z,35.69
2023-05-15T10:21:36.425Z,35.47
2023-05-15T10:24:04.974Z,35.26
2023-05-15T10:26:38.273Z,34.60
2023-05-15T10:29:13.625Z,35.85
2023-05-15T10:31:42.346Z,33.60
2023-05-15T10:34:10.849Z,33.61
2023-05-15T10:36:38.787Z,34.93
2023-05-15T10:39:07.712Z,35.11
2023-05-15T10:41:38.506Z,33.91
2023-05-15T10:44:05.604Z,34.24
2023-05-15T10:46:36.451Z,33.19
2023-05-15T10:49:05.231Z,34.40
2023-05-15T10:51:33.485Z,33.44
2023-05-15T10:54:03.804Z,32.76
2023-05-15T10:56:32.542Z,32.88
2023-05-15T10:59:08.333Z,30.81
2023-05-15T11:01:38.291Z,30.74
2023-05-15T11:04:14.893Z,29.97
2023-05-15T11:06:45.382Z,30.28
2023-05-15T11:09:28.121Z,29.20
2023-05-15T11:11:58.240Z,30.04
2023-05-15T11:14:26.587Z,29.18
2023-05-15T11:16:53.359Z,28.66
2023-05-15T11:19:44.363Z,28.85
2023-05-15T11:22:33.074Z,28.08
2023-05-15T11:25:12.115Z,29.56
2023-05-15T11:27:42.805Z,29.18
2023-05-15T11:30:12.254Z,29.65
2023-05-15T11:32:51.014Z,29.68
2023-05-15T11:35:22.219Z,28.88
2023-05-15T11:37:54.179Z,29.75
2023-05-15T11:40:26.199Z,29.50
2023-05-15T11:43:34.749Z,29.22
2023-05-15T11:46:05.355Z,27.30
2023-05-15T11:48:37.632Z,26.99
2023-05-15T11:51:11.712Z,26.37
2023-05-15T11:53:40.224Z,27.03
2023-05-15T11:56:07.107Z,27.18
2023-05-15T11:58:33.608Z,26.47
2023-05-15T12:01:00.278Z,25.45
2023-05-15T12:03:34.914Z,25.25
2023-05-15T12:06:03.164Z,23.18
2023-05-15T12:08:33.835Z,23.17
2023-05-15T12:11:01.677Z,22.46
2023-05-15T12:13:30.677Z,22.14
2023-05-15T12:15:58.441Z,23.35
2023-05-15T12:18:25.374Z,23.36
2023-05-15T12:20:53.735Z,22.35
2023-05-15T12:23:25.197Z,21.91
2023-05-15T12:26:01.175Z,23.87
2023-05-15T12:28:30.568Z,21.70
2023-05-15T12:30:58.508Z,21.76
2023-05-15T12:33:25.378Z,22.62
2023-05-15T12:36:00.769Z,22.85
2023-05-15T12:38:28.402Z,21.29
2023-05-15T12:40:55.288Z,22.24
2023-05-15T12:43:25.725Z,21.80
2023-05-15T12:45:54.956Z,21.87
2023-05-15T12:48:22.141Z,22.67
2023-05-15T12:50:49.828Z,21.14
2023-05-15T12:53:17.379Z,21.16
2023-05-15T12:55:46.793Z,21.05
2023-05-15T12:58:18.552Z,21.87
2023-05-15T13:00:46.639Z,21.19
2023-05-15T13:03:14.246Z,20.75
2023-05-15T13:05:45.889Z,20.77
2023-05-15T13:08:18.734Z,19.98
2023-05-15T13:10:47.345Z,21.63
2023-05-15T13:13:16.484Z,21.41
2023-05-15T13:15:45.291Z,20.19
2023-05-15T13:18:16.049Z,18.85
2023-05-15T13:20:46.232Z,18.34
2023-05-15T13:23:17.426Z,19.74
2023-05-15T13:25:44.670Z,19.58
2023-05-15T13:28:12.908Z,18.73
2023-05-15T13:30:42.247Z,18.72
2023-05-15T13:33:12.243Z,18.80
2023-05-15T13:35:41.151Z,17.75
2023-05-15T13:38:11.194Z,17.93
2023-05-15T13:40:39.048Z,18.44
2023-05-15T13:43:06.903Z,18.58
2023-05-15T13:45:34.415Z,19.81
2023-05-15T13:48:01.311Z,18.61
2023-05-15T13:50:28.087Z,18.51
2023-05-15T13:52:54.755Z,18.84
2023-05-15T13:55:22.905Z,18.38
2023-05-15T13:57:49.451Z,17.65
2023-05-15T14:00:17.198Z,17.69
2023-05-15T14:02:44.757Z,18.17
2023-05-15T14:05:14.048Z,17.50
2023-05-15T14:07:41.752Z,17.03
2023-05-15T14:10:09.748Z,18.16
2023-05-15T14:12:37.710Z,16.02
2023-05-15T14:15:04.895Z,15.17
2023-05-15T14:17:31.557Z,15.60
2023-05-15T14:19:58.108Z,14.13
2023-05-15T14:22:25.056Z,14.53
2023-05-15T14:24:53.290Z,14.39
2023-05-15T14:27:20.282Z,14.85
2023-05-15T14:29:48.370Z,14.34
2023-05-15T14:32:16.049Z,13.72
2023-05-15T14:34:42.854Z,13.01
2023-05-15T14:37:09.467Z,13.78
2023-05-15T14:39:35.954Z,12.11
2023-05-15T14:42:02.481Z,12.11
2023-05-15T14:44:28.928Z,12.77
2023-05-15T14:47:13.074Z,12.85
2023-05-15T14:49:40.466Z,12.61
2023-05-15T14:52:10.539Z,12.12
2023-05-15T14:54:39.558Z,12.45
2023-05-15T14:57:07.140Z,12.07
2023-05-15T14:59:33.876Z,11.97
2023-05-15T15:02:00.869Z,12.09
2023-05-15T15:04:29.028Z,11.95
2023-05-15T15:06:56.900Z,12.47
2023-05-15T15:09:25.665Z,11.32
2023-05-15T15:11:53.543Z,11.16
2023-05-15T15:14:20.297Z,10.96
2023-05-15T15:16:47.041Z,10.42
2023-05-15T15:19:14.477Z,10.07
2023-05-15T15:21:41.608Z,10.12
2023-05-15T15:24:08.136Z,10.66
2023-05-15T15:26:34.725Z,10.06
2023-05-15T15:29:01.210Z,9.85
2023-05-15T15:31:30.239Z,10.19
2023-05-15T15:33:58.177Z,10.73
2023-05-15T15:36:25.650Z,10.95
2023-05-15T15:38:52.396Z,9.91
2023-05-15T15:41:21.041Z,10.16
2023-05-15T15:43:47.790Z,10.41
2023-05-15T15:46:14.397Z,10.47
2023-05-15T15:48:41.124Z,10.02
2023-05-15T15:51:07.727Z,10.12
2023-05-15T15:53:34.796Z,10.15
2023-05-15T15:56:01.523Z,9.27
2023-05-15T15:58:28.918Z,9.80
2023-05-15T16:00:55.662Z,9.84
2023-05-15T16:03:22.317Z,9.76
2023-05-15T16:05:48.910Z,10.10
2023-05-15T16:08:15.391Z,9.21
2023-05-15T16:10:41.877Z,9.75
2023-05-15T16:13:10.291Z,10.36
2023-05-15T16:15:36.688Z,10.25
2023-05-15T16:18:03.184Z,9.89
2023-05-15T16:20:29.925Z,9.34
2023-05-15T16:22:56.594Z,9.74
2023-05-15T16:25:23.255Z,9.44
2023-05-15T16:27:49.780Z,9.80
2023-05-15T16:30:16.330Z,9.64
2023-05-15T16:32:43.113Z,9.74
2023-05-15T16:35:09.671Z,9.40
2023-05-15T16:37:36.253Z,9.85
2023-05-15T16:40:03.972Z,9.14
2023-05-15T16:42:36.505Z,9.08
2023-05-15T16:45:04.832Z,9.02
2023-05-15T16:47:31.317Z,8.99
2023-05-15T16:49:57.923Z,9.07
2023-05-15T16:52:24.892Z,8.66
2023-05-15T16:54:51.377Z,8.99
2023-05-15T16:57:17.876Z,10.37
2023-05-15T16:59:44.502Z,9.61
2023-05-15T17:02:11.304Z,9.50
2023-05-15T17:04:37.843Z,9.80
2023-05-15T17:07:05.460Z,8.77
2023-05-15T17:09:32.800Z,8.92
2023-05-15T17:11:59.593Z,8.21
2023-05-15T17:14:26.471Z,8.58
2023-05-15T17:16:53.129Z,8.07
2023-05-15T17:19:19.650Z,9.11
2023-05-15T17:21:46.173Z,10.46
2023-05-15T17:24:14.884Z,13.82
2023-05-15T17:26:42.169Z,14.94
2023-05-15T17:29:08.695Z,15.87
2023-05-15T17:31:36.717Z,17.62
2023-05-15T17:34:03.324Z,17.16
2023-05-15T17:36:29.850Z,17.52
2023-05-15T17:38:56.257Z,16.24
2023-05-15T17:41:22.647Z,16.89
2023-05-15T17:43:49.766Z,16.94
2023-05-15T17:46:16.505Z,16.64
2023-05-15T17:48:43.015Z,17.66
2023-05-15T17:51:09.541Z,17.44
2023-05-15T17:53:36.003Z,16.35
2023-05-15T17:56:03.739Z,16.03
2023-05-15T17:58:30.493Z,16.75
2023-05-15T18:00:57.261Z,16.94
2023-05-15T18:03:23.841Z,16.70
2023-05-15T18:05:51.753Z,15.62
2023-05-15T18:08:18.594Z,16.10
2023-05-15T18:10:45.734Z,15.93
2023-05-15T18:13:12.665Z,15.79
2023-05-15T18:15:39.692Z,16.22
2023-05-15T18:18:06.325Z,15.78
2023-05-15T18:20:33.061Z,15.27
2023-05-15T18:22:59.564Z,15.46
2023-05-15T18:25:26.663Z,15.07
2023-05-15T18:27:53.335Z,16.16
2023-05-15T18:30:19.807Z,15.76
2023-05-15T18:32:46.332Z,16.52
2023-05-15T18:35:12.822Z,16.01
2023-05-15T18:37:39.376Z,15.89
2023-05-15T18:40:06.795Z,15.97
2023-05-15T18:42:33.657Z,15.63
2023-05-15T18:45:00.208Z,14.86
2023-05-15T18:47:26.855Z,14.33
2023-05-15T18:49:53.321Z,13.94
2023-05-15T18:52:21.192Z,13.95
2023-05-15T18:54:48.169Z,13.64
2023-05-15T18:57:14.703Z,13.87
2023-05-15T18:59:41.950Z,13.22
2023-05-15T19:02:09.853Z,12.88
2023-05-15T19:04:36.632Z,13.09
2023-05-15T19:07:03.124Z,13.44
2023-05-15T19:09:29.631Z,11.82
2023-05-15T19:11:56.123Z,12.27
2023-05-15T19:14:22.596Z,12.44
2023-05-15T19:16:49.254Z,12.20
2023-05-15T19:19:15.973Z,13.47
2023-05-15T19:21:42.376Z,12.89
2023-05-15T19:24:08.872Z,13.13
2023-05-15T19:26:35.406Z,14.17
2023-05-15T19:29:01.897Z,13.36
2023-05-15T19:31:31.890Z,13.68
2023-05-15T19:34:00.314Z,14.50
2023-05-15T19:36:27.251Z,15.29
2023-05-15T19:38:53.840Z,13.61
2023-05-15T19:41:21.481Z,13.65
2023-05-15T19:43:50.489Z,14.96
2023-05-15T19:46:18.063Z,14.14
2023-05-15T19:48:45.265Z,13.01
2023-05-15T19:51:12.315Z,12.70
2023-05-15T19:53:38.922Z,13.08
2023-05-15T19:56:06.407Z,14.78
2023-05-15T19:58:33.382Z,13.98
2023-05-15T20:00:59.880Z,15.66
2023-05-15T20:03:32.469Z,14.48
2023-05-15T20:06:02.512Z,14.98
2023-05-15T20:08:29.799Z,15.33
2023-05-15T20:10:57.461Z,15.24
2023-05-15T20:13:24.616Z,15.01
2023-05-15T20:15:56.807Z,13.95
2023-05-15T20:18:26.920Z,13.82
2023-05-15T20:20:53.799Z,13.56
2023-05-15T20:23:21.600Z,13.18
2023-05-15T20:25:50.596Z,13.00
2023-05-15T20:28:18.832Z,12.78
2023-05-15T20:30:47.404Z,13.03
2023-05-15T20:33:14.601Z,13.03
2023-05-15T20:35:42.552Z,13.34
2023-05-15T20:38:10.311Z,13.35
2023-05-15T20:40:36.814Z,13.23
2023-05-15T20:43:03.273Z,13.49
2023-05-15T20:45:31.973Z,13.29
2023-05-15T20:47:58.575Z,13.23
2023-05-15T20:50:26.247Z,13.71
2023-05-15T20:52:53.414Z,14.16
2023-05-15T20:55:21.441Z,14.35
2023-05-15T20:57:49.372Z,14.44
2023-05-15T21:00:18.314Z,13.50
2023-05-15T21:02:46.561Z,13.75
2023-05-15T21:05:13.573Z,14.38
2023-05-15T21:07:40.458Z,15.20
2023-05-15T21:10:08.003Z,15.68
2023-05-15T21:12:34.527Z,15.12
2023-05-15T21:15:02.333Z,16.09
2023-05-15T21:17:28.931Z,16.64
2023-05-15T21:19:57.522Z,16.40
2023-05-15T21:22:24.928Z,16.10
2023-05-15T21:24:51.769Z,18.54
2023-05-15T21:27:18.346Z,19.46
2023-05-15T21:29:44.863Z,22.95
2023-05-15T21:32:11.601Z,20.29
2023-05-15T21:34:39.156Z,24.49
2023-05-15T21:37:05.678Z,25.95
2023-05-15T21:39:32.201Z,24.97
2023-05-15T21:41:58.710Z,24.85
2023-05-15T21:44:25.275Z,27.50
2023-05-15T21:46:51.945Z,29.95
2023-05-15T21:49:18.889Z,28.30
2023-05-15T21:51:45.326Z,30.05
2023-05-15T21:54:11.779Z,30.70
2023-05-15T21:56:38.243Z,29.43
2023-05-15T21:59:04.702Z,28.47
2023-05-15T22:01:31.543Z,28.83
2023-05-15T22:03:58.198Z,30.45
2023-05-15T22:06:24.739Z,29.68
2023-05-15T22:08:51.224Z,30.33
2023-05-15T22:11:17.747Z,29.14
2023-05-15T22:13:44.177Z,29.48
2023-05-15T22:16:10.853Z,29.23
2023-05-15T22:18:37.733Z,28.58
2023-05-15T22:21:04.307Z,28.22
2023-05-15T22:23:31.578Z,27.59
2023-05-15T22:25:58.100Z,28.48
2023-05-15T22:28:24.606Z,25.79
2023-05-15T22:30:51.075Z,25.68
2023-05-15T22:33:17.634Z,25.88
2023-05-15T22:35:44.479Z,24.68
2023-05-15T22:38:11.020Z,24.96
2023-05-15T22:40:37.575Z,24.34
2023-05-15T22:43:04.047Z,23.79
2023-05-15T22:45:30.536Z,23.45
2023-05-15T22:47:57.145Z,22.60
2023-05-15T22:50:23.667Z,21.86
2023-05-15T22:52:50.241Z,21.70
2023-05-15T22:55:16.949Z,21.40
2023-05-15T22:57:44.042Z,21.09
2023-05-15T23:00:11.983Z,20.25
2023-05-15T23:02:39.039Z,20.46
2023-05-15T23:05:06.106Z,19.82
2023-05-15T23:07:32.572Z,20.04
2023-05-15T23:09:59.038Z,20.12
2023-05-15T23:12:25.695Z,20.49
2023-05-15T23:14:52.152Z,19.59
2023-05-15T23:17:18.793Z,20.28
2023-05-15T23:19:45.356Z,20.14
2023-05-15T23:22:12.354Z,20.66
2023-05-15T23:24:38.799Z,20.72
2023-05-15T23:27:05.528Z,21.27
2023-05-15T23:29:33.897Z,20.59
2023-05-15T23:32:00.534Z,20.40
2023-05-15T23:34:28.554Z,20.44
2023-05-15T23:36:55.161Z,20.49
2023-05-15T23:39:21.660Z,19.75
2023-05-15T23:41:48.335Z,19.35
2023-05-15T23:44:14.849Z,18.87
2023-05-15T23:46:41.295Z,18.64
2023-05-15T23:49:07.804Z,18.64
2023-05-15T23:51:34.291Z,17.96
2023-05-15T23:54:00.734Z,17.44
2023-05-15T23:56:27.190Z,17.77
2023-05-15T23:58:53.895Z,17.27
